Aviation Digital Data Service (ADDS)

Output produced by METARs form (0804 UTC 18 February 2019)
found at http://www.aviationweather.gov/metar/data/
 
METAR text: HTDA 180700Z 36008KT 9999 FEW020 BKN021 31/24 Q1012 NOSIG
Conditions at: HTDA (DAR ES SALAAM AR, TZ) observed 0700 UTC 18 February 2019
Temperature: 31.0°C (88°F)
Dewpoint: 24.0°C (75°F) [RH = 66%]
Pressure (altimeter): 29.88 inches Hg (1012.0 mb)
Winds: from the N (360 degrees) at 9 MPH (8 knots; 4.1 m/s)
Visibility: 6 or more miles (10+ km)
Ceiling: 2100 feet AGL
Clouds: few clouds at 2000 feet AGL
broken clouds at 2100 feet AGL
Weather: no significant weather observed at this time

METAR text: HTDA 180600Z 34007KT 9999 SCT018 SCT020 30/25 Q1012 NOSIG
Conditions at: HTDA (DAR ES SALAAM AR, TZ) observed 0600 UTC 18 February 2019
Temperature: 30.0°C (86°F)
Dewpoint: 25.0°C (77°F) [RH = 75%]
Pressure (altimeter): 29.88 inches Hg (1012.0 mb)
Winds: from the NNW (340 degrees) at 8 MPH (7 knots; 3.6 m/s)
Visibility: 6 or more miles (10+ km)
Ceiling: at least 12,000 feet AGL
Clouds: scattered clouds at 1800 feet AGL
scattered clouds at 2000 feet AGL
Weather: no significant weather observed at this time

METAR text: HTDA 180500Z 03006KT 9999 FEW011 SCT013 29/25 Q1011 NOSIG
Conditions at: HTDA (DAR ES SALAAM AR, TZ) observed 0500 UTC 18 February 2019
Temperature: 29.0°C (84°F)
Dewpoint: 25.0°C (77°F) [RH = 79%]
Pressure (altimeter): 29.85 inches Hg (1011.0 mb)
Winds: from the NNE (30 degrees) at 7 MPH (6 knots; 3.1 m/s)
Visibility: 6 or more miles (10+ km)
Ceiling: at least 12,000 feet AGL
Clouds: few clouds at 1100 feet AGL
scattered clouds at 1300 feet AGL
Weather: no significant weather observed at this time

METAR text: HTDA 180400Z 01006KT 9999 BKN010 27/24 Q1011 NOSIG
Conditions at: HTDA (DAR ES SALAAM AR, TZ) observed 0400 UTC 18 February 2019
Temperature: 27.0°C (81°F)
Dewpoint: 24.0°C (75°F) [RH = 84%]
Pressure (altimeter): 29.85 inches Hg (1011.0 mb)
Winds: from the N (10 degrees) at 7 MPH (6 knots; 3.1 m/s)
Visibility: 6 or more miles (10+ km)
Ceiling: 1000 feet AGL
Clouds: broken clouds at 1000 feet AGL
Weather: no significant weather observed at this time

METAR text: HTDA 180300Z 35003KT 9999 FEW010 SCT011 27/24 Q1011 NOSIG
Conditions at: HTDA (DAR ES SALAAM AR, TZ) observed 0300 UTC 18 February 2019
Temperature: 27.0°C (81°F)
Dewpoint: 24.0°C (75°F) [RH = 84%]
Pressure (altimeter): 29.85 inches Hg (1011.0 mb)
Winds: from the N (350 degrees) at 3 MPH (3 knots; 1.5 m/s)
Visibility: 6 or more miles (10+ km)
Ceiling: at least 12,000 feet AGL
Clouds: few clouds at 1000 feet AGL
scattered clouds at 1100 feet AGL
Weather: no significant weather observed at this time

METAR text: HTDA 180200Z 00000KT 9999 FEW010 BKN011 27/24 Q1010 NOSIG
Conditions at: HTDA (DAR ES SALAAM AR, TZ) observed 0200 UTC 18 February 2019
Temperature: 27.0°C (81°F)
Dewpoint: 24.0°C (75°F) [RH = 84%]
Pressure (altimeter): 29.82 inches Hg (1010.0 mb)
Winds: calm
Visibility: 6 or more miles (10+ km)
Ceiling: 1100 feet AGL
Clouds: few clouds at 1000 feet AGL
broken clouds at 1100 feet AGL
Weather: no significant weather observed at this time

METAR text: HTDA 180100Z 02007KT 9999 BKNO11 27/24 Q1010 NOSIG
Conditions at: HTDA (DAR ES SALAAM AR, TZ) observed 0100 UTC 18 February 2019
Temperature: 27.0°C (81°F)
Dewpoint: 24.0°C (75°F) [RH = 84%]
Pressure (altimeter): 29.82 inches Hg (1010.0 mb)
Winds: from the NNE (20 degrees) at 8 MPH (7 knots; 3.6 m/s)
Visibility: 6 or more miles (10+ km)
Ceiling: unknown
Clouds: missing
Weather: no significant weather observed at this time

METAR text: HTDA 180000Z 02006KT 9999 SCT011 27/24 Q1010 NOSIG
Conditions at: HTDA (DAR ES SALAAM AR, TZ) observed 0000 UTC 18 February 2019
Temperature: 27.0°C (81°F)
Dewpoint: 24.0°C (75°F) [RH = 84%]
Pressure (altimeter): 29.82 inches Hg (1010.0 mb)
Winds: from the NNE (20 degrees) at 7 MPH (6 knots; 3.1 m/s)
Visibility: 6 or more miles (10+ km)
Ceiling: at least 12,000 feet AGL
Clouds: scattered clouds at 1100 feet AGL
Weather: no significant weather observed at this time

METAR text: HTDA 172300Z 02006KT 9999 SCT011 27/24 Q1011 NOSIG
Conditions at: HTDA (DAR ES SALAAM AR, TZ) observed 2300 UTC 17 February 2019
Temperature: 27.0°C (81°F)
Dewpoint: 24.0°C (75°F) [RH = 84%]
Pressure (altimeter): 29.85 inches Hg (1011.0 mb)
Winds: from the NNE (20 degrees) at 7 MPH (6 knots; 3.1 m/s)
Visibility: 6 or more miles (10+ km)
Ceiling: at least 12,000 feet AGL
Clouds: scattered clouds at 1100 feet AGL
Weather: no significant weather observed at this time

METAR text: HTDA 172200Z 05010KT 9999 BKN010 28/24 Q1011 NOSIG
Conditions at: HTDA (DAR ES SALAAM AR, TZ) observed 2200 UTC 17 February 2019
Temperature: 28.0°C (82°F)
Dewpoint: 24.0°C (75°F) [RH = 79%]
Pressure (altimeter): 29.85 inches Hg (1011.0 mb)
Winds: from the NE (50 degrees) at 12 MPH (10 knots; 5.1 m/s)
Visibility: 6 or more miles (10+ km)
Ceiling: 1000 feet AGL
Clouds: broken clouds at 1000 feet AGL
Weather: no significant weather observed at this time

METAR text: HTDA 172100Z 03005KT 9999 BKN012 27/24 Q1012 NOSIG
Conditions at: HTDA (DAR ES SALAAM AR, TZ) observed 2100 UTC 17 February 2019
Temperature: 27.0°C (81°F)
Dewpoint: 24.0°C (75°F) [RH = 84%]
Pressure (altimeter): 29.88 inches Hg (1012.0 mb)
Winds: from the NNE (30 degrees) at 6 MPH (5 knots; 2.6 m/s)
Visibility: 6 or more miles (10+ km)
Ceiling: 1200 feet AGL
Clouds: broken clouds at 1200 feet AGL
Weather: no significant weather observed at this time

METAR text: HTDA 172000Z 04010KT 9999 SCT010 28/24 Q1011 NOSIG
Conditions at: HTDA (DAR ES SALAAM AR, TZ) observed 2000 UTC 17 February 2019
Temperature: 28.0°C (82°F)
Dewpoint: 24.0°C (75°F) [RH = 79%]
Pressure (altimeter): 29.85 inches Hg (1011.0 mb)
Winds: from the NE (40 degrees) at 12 MPH (10 knots; 5.1 m/s)
Visibility: 6 or more miles (10+ km)
Ceiling: at least 12,000 feet AGL
Clouds: scattered clouds at 1000 feet AGL
Weather: no significant weather observed at this time

METAR text: HTDA 171900Z 05010KT 9999 FEW010 28/24 Q1011 NOSIG
Conditions at: HTDA (DAR ES SALAAM AR, TZ) observed 1900 UTC 17 February 2019
Temperature: 28.0°C (82°F)
Dewpoint: 24.0°C (75°F) [RH = 79%]
Pressure (altimeter): 29.85 inches Hg (1011.0 mb)
Winds: from the NE (50 degrees) at 12 MPH (10 knots; 5.1 m/s)
Visibility: 6 or more miles (10+ km)
Ceiling: at least 12,000 feet AGL
Clouds: few clouds at 1000 feet AGL
Weather: no significant weather observed at this time

METAR text: HTDA 171800Z 04008KT 9999 FEW013 28/25 Q1010 NOSIG
Conditions at: HTDA (DAR ES SALAAM AR, TZ) observed 1800 UTC 17 February 2019
Temperature: 28.0°C (82°F)
Dewpoint: 25.0°C (77°F) [RH = 84%]
Pressure (altimeter): 29.82 inches Hg (1010.0 mb)
Winds: from the NE (40 degrees) at 9 MPH (8 knots; 4.1 m/s)
Visibility: 6 or more miles (10+ km)
Ceiling: at least 12,000 feet AGL
Clouds: few clouds at 1300 feet AGL
Weather: no significant weather observed at this time

METAR text: HTDA 171700Z 04010KT 9999 FEW016 28/24 Q1009 NOSIG
Conditions at: HTDA (DAR ES SALAAM AR, TZ) observed 1700 UTC 17 February 2019
Temperature: 28.0°C (82°F)
Dewpoint: 24.0°C (75°F) [RH = 79%]
Pressure (altimeter): 29.79 inches Hg (1009.0 mb)
Winds: from the NE (40 degrees) at 12 MPH (10 knots; 5.1 m/s)
Visibility: 6 or more miles (10+ km)
Ceiling: at least 12,000 feet AGL
Clouds: few clouds at 1600 feet AGL
Weather: no significant weather observed at this time

METAR text: HTDA 171600Z 04011KT 9999 FEW017 29/24 Q1009 NOSIG
Conditions at: HTDA (DAR ES SALAAM AR, TZ) observed 1600 UTC 17 February 2019
Temperature: 29.0°C (84°F)
Dewpoint: 24.0°C (75°F) [RH = 74%]
Pressure (altimeter): 29.79 inches Hg (1009.0 mb)
Winds: from the NE (40 degrees) at 13 MPH (11 knots; 5.7 m/s)
Visibility: 6 or more miles (10+ km)
Ceiling: at least 12,000 feet AGL
Clouds: few clouds at 1700 feet AGL
Weather: no significant weather observed at this time

METAR text: HTDA 171500Z 04013KT 9999 FEW018 30/25 Q1008 NOSIG
Conditions at: HTDA (DAR ES SALAAM AR, TZ) observed 1500 UTC 17 February 2019
Temperature: 30.0°C (86°F)
Dewpoint: 25.0°C (77°F) [RH = 75%]
Pressure (altimeter): 29.76 inches Hg (1008.0 mb)
Winds: from the NE (40 degrees) at 15 MPH (13 knots; 6.7 m/s)
Visibility: 6 or more miles (10+ km)
Ceiling: at least 12,000 feet AGL
Clouds: few clouds at 1800 feet AGL
Weather: no significant weather observed at this time

METAR text: HTDA 171400Z 04012KT 9999 FEW020 32/26 Q1008 NOSIG
Conditions at: HTDA (DAR ES SALAAM AR, TZ) observed 1400 UTC 17 February 2019
Temperature: 32.0°C (90°F)
Dewpoint: 26.0°C (79°F) [RH = 71%]
Pressure (altimeter): 29.76 inches Hg (1008.0 mb)
Winds: from the NE (40 degrees) at 14 MPH (12 knots; 6.2 m/s)
Visibility: 6 or more miles (10+ km)
Ceiling: at least 12,000 feet AGL
Clouds: few clouds at 2000 feet AGL
Weather: no significant weather observed at this time

METAR text: HTDA 171300Z 04012KT 9999 FEW025 33/26 Q1009 NOSIG
Conditions at: HTDA (DAR ES SALAAM AR, TZ) observed 1300 UTC 17 February 2019
Temperature: 33.0°C (91°F)
Dewpoint: 26.0°C (79°F) [RH = 67%]
Pressure (altimeter): 29.79 inches Hg (1009.0 mb)
Winds: from the NE (40 degrees) at 14 MPH (12 knots; 6.2 m/s)
Visibility: 6 or more miles (10+ km)
Ceiling: at least 12,000 feet AGL
Clouds: few clouds at 2500 feet AGL
Weather: no significant weather observed at this time

METAR text: HTDA 171100Z 02010KT 9999 SCT027 34/26 Q1010 NOSIG
Conditions at: HTDA (DAR ES SALAAM AR, TZ) observed 1100 UTC 17 February 2019
Temperature: 34.0°C (93°F)
Dewpoint: 26.0°C (79°F) [RH = 63%]
Pressure (altimeter): 29.82 inches Hg (1010.0 mb)
Winds: from the NNE (20 degrees) at 12 MPH (10 knots; 5.1 m/s)
Visibility: 6 or more miles (10+ km)
Ceiling: at least 12,000 feet AGL
Clouds: scattered clouds at 2700 feet AGL
Weather: no significant weather observed at this time

METAR text: HTDA 171000Z 02012KT 9999 SCT027 34/26 Q1012 NOSIG
Conditions at: HTDA (DAR ES SALAAM AR, TZ) observed 1000 UTC 17 February 2019
Temperature: 34.0°C (93°F)
Dewpoint: 26.0°C (79°F) [RH = 63%]
Pressure (altimeter): 29.88 inches Hg (1012.0 mb)
Winds: from the NNE (20 degrees) at 14 MPH (12 knots; 6.2 m/s)
Visibility: 6 or more miles (10+ km)
Ceiling: at least 12,000 feet AGL
Clouds: scattered clouds at 2700 feet AGL
Weather: no significant weather observed at this time

METAR text: HTDA 170900Z 05012KT 9999 SCT027 34/25 Q1012 NOSIG
Conditions at: HTDA (DAR ES SALAAM AR, TZ) observed 0900 UTC 17 February 2019
Temperature: 34.0°C (93°F)
Dewpoint: 25.0°C (77°F) [RH = 60%]
Pressure (altimeter): 29.88 inches Hg (1012.0 mb)
Winds: from the NE (50 degrees) at 14 MPH (12 knots; 6.2 m/s)
Visibility: 6 or more miles (10+ km)
Ceiling: at least 12,000 feet AGL
Clouds: scattered clouds at 2700 feet AGL
Weather: no significant weather observed at this time

METAR text: HTDA 170800Z 01012KT 9999 SCT024 FEW025CB SCT080 33/25 Q1013 NOSIG
Conditions at: HTDA (DAR ES SALAAM AR, TZ) observed 0800 UTC 17 February 2019
Temperature: 33.0°C (91°F)
Dewpoint: 25.0°C (77°F) [RH = 63%]
Pressure (altimeter): 29.91 inches Hg (1013.0 mb)
Winds: from the N (10 degrees) at 14 MPH (12 knots; 6.2 m/s)
Visibility: 6 or more miles (10+ km)
Ceiling: at least 12,000 feet AGL
Clouds: scattered clouds at 2400 feet AGL
few clouds at 2500 feet AGL
scattered clouds at 8000 feet AGL
Weather: no significant weather observed at this time

METAR text: HTDA 170600Z 02008KT 9999 SCT016 FEW017CB SCT070 30/25 Q1014 NOSIG
Conditions at: HTDA (DAR ES SALAAM AR, TZ) observed 0600 UTC 17 February 2019
Temperature: 30.0°C (86°F)
Dewpoint: 25.0°C (77°F) [RH = 75%]
Pressure (altimeter): 29.94 inches Hg (1014.0 mb)
Winds: from the NNE (20 degrees) at 9 MPH (8 knots; 4.1 m/s)
Visibility: 6 or more miles (10+ km)
Ceiling: at least 12,000 feet AGL
Clouds: scattered clouds at 1600 feet AGL
few clouds at 1700 feet AGL
scattered clouds at 7000 feet AGL
Weather: no significant weather observed at this time

METAR text: HTDA 170500Z 33006KT 9999 FEW011 BKN013 FEW015CB 29/24 Q1014 NOSIG
Conditions at: HTDA (DAR ES SALAAM AR, TZ) observed 0500 UTC 17 February 2019
Temperature: 29.0°C (84°F)
Dewpoint: 24.0°C (75°F) [RH = 74%]
Pressure (altimeter): 29.94 inches Hg (1014.0 mb)
Winds: from the NNW (330 degrees) at 7 MPH (6 knots; 3.1 m/s)
Visibility: 6 or more miles (10+ km)
Ceiling: 1300 feet AGL
Clouds: few clouds at 1100 feet AGL
broken clouds at 1300 feet AGL
few clouds at 1500 feet AGL
Weather: no significant weather observed at this time

METAR text: HTDA 170400Z 02005KT 9999 FEW011 BKN013 27/24 Q1013 NOSIG
Conditions at: HTDA (DAR ES SALAAM AR, TZ) observed 0400 UTC 17 February 2019
Temperature: 27.0°C (81°F)
Dewpoint: 24.0°C (75°F) [RH = 84%]
Pressure (altimeter): 29.91 inches Hg (1013.0 mb)
Winds: from the NNE (20 degrees) at 6 MPH (5 knots; 2.6 m/s)
Visibility: 6 or more miles (10+ km)
Ceiling: 1300 feet AGL
Clouds: few clouds at 1100 feet AGL
broken clouds at 1300 feet AGL
Weather: no significant weather observed at this time

METAR text: HTDA 170300Z 03011KT 9999 BKN013 28/24 Q1012 NOSIG
Conditions at: HTDA (DAR ES SALAAM AR, TZ) observed 0300 UTC 17 February 2019
Temperature: 28.0°C (82°F)
Dewpoint: 24.0°C (75°F) [RH = 79%]
Pressure (altimeter): 29.88 inches Hg (1012.0 mb)
Winds: from the NNE (30 degrees) at 13 MPH (11 knots; 5.7 m/s)
Visibility: 6 or more miles (10+ km)
Ceiling: 1300 feet AGL
Clouds: broken clouds at 1300 feet AGL
Weather: no significant weather observed at this time

METAR text: HTDA 170200Z 03005KT 9999 BKN013 28/24 Q1012 NOSIG
Conditions at: HTDA (DAR ES SALAAM AR, TZ) observed 0200 UTC 17 February 2019
Temperature: 28.0°C (82°F)
Dewpoint: 24.0°C (75°F) [RH = 79%]
Pressure (altimeter): 29.88 inches Hg (1012.0 mb)
Winds: from the NNE (30 degrees) at 6 MPH (5 knots; 2.6 m/s)
Visibility: 6 or more miles (10+ km)
Ceiling: 1300 feet AGL
Clouds: broken clouds at 1300 feet AGL
Weather: no significant weather observed at this time

METAR text: HTDA 170100Z 02008KT 9999 BKN013 28/24 Q1011 NOSIG
Conditions at: HTDA (DAR ES SALAAM AR, TZ) observed 0100 UTC 17 February 2019
Temperature: 28.0°C (82°F)
Dewpoint: 24.0°C (75°F) [RH = 79%]
Pressure (altimeter): 29.85 inches Hg (1011.0 mb)
Winds: from the NNE (20 degrees) at 9 MPH (8 knots; 4.1 m/s)
Visibility: 6 or more miles (10+ km)
Ceiling: 1300 feet AGL
Clouds: broken clouds at 1300 feet AGL
Weather: no significant weather observed at this time

METAR text: HTDA 170000Z 02010KT 9999 BKN012 28/24 Q1012 NOSIG
Conditions at: HTDA (DAR ES SALAAM AR, TZ) observed 0000 UTC 17 February 2019
Temperature: 28.0°C (82°F)
Dewpoint: 24.0°C (75°F) [RH = 79%]
Pressure (altimeter): 29.88 inches Hg (1012.0 mb)
Winds: from the NNE (20 degrees) at 12 MPH (10 knots; 5.1 m/s)
Visibility: 6 or more miles (10+ km)
Ceiling: 1200 feet AGL
Clouds: broken clouds at 1200 feet AGL
Weather: no significant weather observed at this time

METAR text: HTDA 162300Z 03014KT 9999 BKN013 28/24 Q1012 NOSIG
Conditions at: HTDA (DAR ES SALAAM AR, TZ) observed 2300 UTC 16 February 2019
Temperature: 28.0°C (82°F)
Dewpoint: 24.0°C (75°F) [RH = 79%]
Pressure (altimeter): 29.88 inches Hg (1012.0 mb)
Winds: from the NNE (30 degrees) at 16 MPH (14 knots; 7.2 m/s)
Visibility: 6 or more miles (10+ km)
Ceiling: 1300 feet AGL
Clouds: broken clouds at 1300 feet AGL
Weather: no significant weather observed at this time

METAR text: HTDA 162200Z 03014KT 9999 SCT013 28/24 Q1012 NOSIG
Conditions at: HTDA (DAR ES SALAAM AR, TZ) observed 2200 UTC 16 February 2019
Temperature: 28.0°C (82°F)
Dewpoint: 24.0°C (75°F) [RH = 79%]
Pressure (altimeter): 29.88 inches Hg (1012.0 mb)
Winds: from the NNE (30 degrees) at 16 MPH (14 knots; 7.2 m/s)
Visibility: 6 or more miles (10+ km)
Ceiling: at least 12,000 feet AGL
Clouds: scattered clouds at 1300 feet AGL
Weather: no significant weather observed at this time

METAR text: HTDA 162100Z 05011KT 9999 SCT013 28/24 Q1013 NOSIG
Conditions at: HTDA (DAR ES SALAAM AR, TZ) observed 2100 UTC 16 February 2019
Temperature: 28.0°C (82°F)
Dewpoint: 24.0°C (75°F) [RH = 79%]
Pressure (altimeter): 29.91 inches Hg (1013.0 mb)
Winds: from the NE (50 degrees) at 13 MPH (11 knots; 5.7 m/s)
Visibility: 6 or more miles (10+ km)
Ceiling: at least 12,000 feet AGL
Clouds: scattered clouds at 1300 feet AGL
Weather: no significant weather observed at this time

Forecast for: HTDA (DAR ES SALAAM AR, TZ)
Text: TAF HTDA 180500Z 1806/1912 03010KT 9999 BKN022
Forecast period: 0600 to 1400 UTC 18 February 2019
Forecast type: FROM: standard forecast or significant change
Winds: from the NNE (30 degrees) at 12 MPH (10 knots; 5.1 m/s)
Visibility: 6 or more miles 10+ km)
Ceiling: 2200 feet AGL
Clouds: broken clouds at 2200 feet AGL
Weather: no significant weather forecast for this period
Text: BECMG 1814/1817 SCT018
Forecast period: 1400 UTC 18 February 2019 to 1200 UTC 19 February 2019
Forecast type: BECOMING: Conditions expected to become as follows by 1700 UTC 18 February 2019
Winds: from the NNE (30 degrees) at 12 MPH (10 knots; 5.1 m/s)
Visibility: 6 or more miles 10+ km)
Ceiling: at least 12,000 feet AGL
Clouds: scattered clouds at 1800 feet AGL
Weather: no significant weather forecast for this period